Time;durP1;ratioP1;P1;durP2;ratioP2;P2;SDS_P1;SDS_P2;PMS_P1;PMS_P2;Temp;Humidity;BMP_temperature;BMP_pressure;BME280_temperature;BME280_humidity;BME280_pressure;Samples;Min_cycle;Max_cycle;Signal;HPM_P1;HPM_P2
2023/10/06 00:01:47;;;;;;;1.85;0.93;;;13.90;99.90;;;;;;4206794;28;20171;-87
2023/10/06 00:03:48;;;;;;;5.20;1.00;;;14.00;99.90;;;;;;4204914;28;20193;-93
2023/10/06 00:05:49;;;;;;;2.28;0.80;;;14.00;99.90;;;;;;4221898;28;20249;-93
2023/10/06 00:07:50;;;;;;;4.43;1.33;;;13.90;99.90;;;;;;4207292;28;20175;-87
2023/10/06 00:09:53;;;;;;;2.55;0.95;;;13.90;99.90;;;;;;4207214;28;20171;-87
2023/10/06 00:11:55;;;;;;;1.40;0.95;;;13.90;99.90;;;;;;4224953;28;20178;-86
2023/10/06 00:14:07;;;;;;;3.83;1.17;;;14.00;99.90;;;;;;4205669;28;20676;-87
2023/10/06 00:16:08;;;;;;;1.52;0.73;;;14.00;99.90;;;;;;4221531;28;20281;-94
2023/10/06 00:18:16;;;;;;;4.78;1.17;;;14.00;99.90;;;;;;4206434;28;20162;-88
2023/10/06 00:20:26;;;;;;;2.08;1.02;;;13.90;99.90;;;;;;4205416;28;20657;-95
2023/10/06 00:22:29;;;;;;;5.15;1.30;;;14.00;99.90;;;;;;4224208;28;20158;-92
2023/10/06 00:24:31;;;;;;;4.57;1.20;;;14.00;99.90;;;;;;4205468;28;20185;-92
2023/10/06 00:26:32;;;;;;;5.38;1.27;;;14.00;99.90;;;;;;4220423;28;20233;-91
2023/10/06 00:28:32;;;;;;;3.15;0.88;;;13.90;99.90;;;;;;4226081;28;20602;-89
2023/10/06 00:30:34;;;;;;;4.10;1.10;;;13.90;99.90;;;;;;4209398;28;20703;-86
2023/10/06 00:32:36;;;;;;;1.33;0.70;;;13.90;99.90;;;;;;4205384;28;20530;-86
2023/10/06 00:34:37;;;;;;;9.02;2.13;;;13.90;99.90;;;;;;4205141;28;20188;-86
2023/10/06 00:36:41;;;;;;;2.10;0.95;;;13.90;99.90;;;;;;4223710;28;20222;-93
2023/10/06 00:38:50;;;;;;;6.28;1.15;;;13.90;99.90;;;;;;4208827;28;20163;-94
2023/10/06 00:40:55;;;;;;;2.95;1.23;;;14.00;99.90;;;;;;4224252;28;20181;-86
2023/10/06 00:43:00;;;;;;;2.58;0.95;;;13.80;99.90;;;;;;4205821;28;20199;-86
2023/10/06 00:45:05;;;;;;;4.07;1.10;;;13.80;99.90;;;;;;4221895;28;20174;-94
2023/10/06 00:47:10;;;;;;;5.40;1.35;;;13.90;99.90;;;;;;4206745;28;20635;-95
2023/10/06 00:49:13;;;;;;;3.15;1.33;;;13.90;99.90;;;;;;4223251;28;20165;-86
2023/10/06 00:51:27;;;;;;;3.47;1.40;;;13.80;99.90;;;;;;4227236;28;20222;-93
2023/10/06 00:53:31;;;;;;;2.10;0.95;;;13.90;99.90;;;;;;4206284;28;20154;-87
2023/10/06 00:55:40;;;;;;;1.75;1.17;;;14.00;99.90;;;;;;4220300;28;20288;-93
2023/10/06 00:57:41;;;;;;;2.95;0.95;;;13.90;99.90;;;;;;4240461;28;20174;-92
2023/10/06 00:59:42;;;;;;;5.65;1.63;;;13.90;99.90;;;;;;4222081;28;20193;-91
2023/10/06 01:01:43;;;;;;;1.50;0.80;;;14.00;99.90;;;;;;4204366;28;20186;-89
2023/10/06 01:03:48;;;;;;;2.28;0.90;;;13.90;99.90;;;;;;4224845;28;20217;-87
2023/10/06 01:05:49;;;;;;;2.30;0.85;;;13.90;99.90;;;;;;4204655;28;20197;-86
2023/10/06 01:07:50;;;;;;;2.67;1.20;;;13.90;99.90;;;;;;4220670;28;20162;-86
2023/10/06 01:10:06;;;;;;;1.75;1.10;;;14.10;99.90;;;;;;4209914;28;20175;-94
2023/10/06 01:12:13;;;;;;;1.08;0.77;;;14.10;99.90;;;;;;4207060;28;20166;-87
2023/10/06 01:14:21;;;;;;;4.40;1.15;;;14.00;99.90;;;;;;4207132;28;20178;-87
2023/10/06 01:16:30;;;;;;;1.77;0.98;;;14.00;99.90;;;;;;4224212;28;20262;-88
2023/10/06 01:18:50;;;;;;;3.55;1.30;;;14.00;99.90;;;;;;4226442;28;20204;-93
2023/10/06 01:20:51;;;;;;;3.90;1.30;;;13.90;99.90;;;;;;4207976;28;20170;-87
2023/10/06 01:22:56;;;;;;;2.80;1.23;;;13.90;99.90;;;;;;4205473;28;20175;-87
2023/10/06 01:25:03;;;;;;;6.25;1.75;;;13.90;99.90;;;;;;4204146;28;20239;-90
2023/10/06 01:27:07;;;;;;;2.55;1.15;;;14.10;99.90;;;;;;4221944;28;20197;-86
2023/10/06 01:29:13;;;;;;;5.05;1.10;;;14.10;99.90;;;;;;4205142;28;20194;-92
2023/10/06 01:31:14;;;;;;;5.57;0.90;;;14.10;99.90;;;;;;4219102;28;20201;-90
2023/10/06 01:33:15;;;;;;;3.15;1.33;;;14.20;99.90;;;;;;4203306;28;20166;-94
2023/10/06 01:35:26;;;;;;;4.00;1.50;;;14.20;99.90;;;;;;4204650;28;20236;-86
2023/10/06 01:37:27;;;;;;;4.85;1.40;;;14.20;99.90;;;;;;4220028;28;20184;-86
2023/10/06 01:39:31;;;;;;;1.85;0.90;;;14.20;99.90;;;;;;4220024;28;20173;-89
2023/10/06 01:41:35;;;;;;;3.75;1.30;;;14.20;99.90;;;;;;4221690;28;20166;-95
2023/10/06 01:43:38;;;;;;;2.80;1.38;;;14.10;99.90;;;;;;4221182;28;20174;-87
2023/10/06 01:45:43;;;;;;;5.88;1.33;;;14.10;99.90;;;;;;4206279;28;20240;-87
2023/10/06 01:47:45;;;;;;;4.07;1.50;;;14.10;99.90;;;;;;4203068;28;20166;-88
2023/10/06 01:49:47;;;;;;;4.28;1.20;;;14.10;99.90;;;;;;4221899;28;20192;-87
2023/10/06 01:51:52;;;;;;;1.92;0.80;;;14.10;99.90;;;;;;4221175;28;20181;-87
2023/10/06 01:53:53;;;;;;;2.42;0.70;;;14.10;99.90;;;;;;4205422;28;20181;-93
2023/10/06 01:55:54;;;;;;;1.70;0.88;;;14.10;99.90;;;;;;4203292;28;20678;-94
2023/10/06 01:57:57;;;;;;;5.45;1.42;;;14.10;99.90;;;;;;4205287;28;20269;-95
2023/10/06 01:59:57;;;;;;;2.67;0.90;;;14.10;99.90;;;;;;4205292;28;20171;-87
2023/10/06 02:02:01;;;;;;;3.33;1.45;;;14.20;99.90;;;;;;4205352;28;20173;-87
2023/10/06 02:04:07;;;;;;;4.95;1.20;;;14.30;99.90;;;;;;4220883;28;20177;-87
2023/10/06 02:06:13;;;;;;;3.90;0.93;;;14.20;99.90;;;;;;4221735;28;20182;-87
2023/10/06 02:08:21;;;;;;;5.30;1.55;;;14.20;99.90;;;;;;4238942;28;20235;-86
2023/10/06 02:10:21;;;;;;;5.63;0.98;;;14.20;99.90;;;;;;4203401;28;20234;-87
2023/10/06 02:12:22;;;;;;;2.60;0.95;;;14.20;99.90;;;;;;4204477;28;20179;-94
2023/10/06 02:14:23;;;;;;;1.67;0.98;;;14.20;99.90;;;;;;4207483;28;20199;-93
2023/10/06 02:16:26;;;;;;;4.38;1.20;;;14.30;99.90;;;;;;4223753;28;20271;-88
2023/10/06 02:18:37;;;;;;;3.50;1.10;;;14.20;99.90;;;;;;4205057;28;20205;-87
2023/10/06 02:20:41;;;;;;;1.25;0.90;;;14.20;99.90;;;;;;4204282;28;20182;-88
2023/10/06 02:22:42;;;;;;;2.97;0.88;;;14.20;99.90;;;;;;4222632;28;20181;-86
2023/10/06 02:24:42;;;;;;;6.22;1.23;;;14.10;99.90;;;;;;4205609;28;20175;-92
2023/10/06 02:26:44;;;;;;;2.88;1.10;;;14.00;99.90;;;;;;4206290;28;20650;-91
2023/10/06 02:28:48;;;;;;;2.88;1.38;;;14.00;99.90;;;;;;4204417;28;20171;-87
2023/10/06 02:30:51;;;;;;;1.55;0.82;;;14.00;99.90;;;;;;4202534;28;20166;-87
2023/10/06 02:32:52;;;;;;;2.08;0.60;;;13.90;99.90;;;;;;4205921;28;20265;-87
2023/10/06 02:34:53;;;;;;;6.43;1.73;;;13.90;99.90;;;;;;4239104;28;20173;-87
2023/10/06 02:36:54;;;;;;;1.35;0.80;;;13.90;99.90;;;;;;4224823;28;20216;-87
2023/10/06 02:38:55;;;;;;;3.20;0.70;;;13.90;99.90;;;;;;4208033;28;20197;-89
2023/10/06 02:40:56;;;;;;;4.07;1.00;;;13.80;99.90;;;;;;4220108;28;20174;-87
2023/10/06 02:43:00;;;;;;;2.17;0.90;;;13.90;99.90;;;;;;4204504;28;20760;-87
2023/10/06 02:45:00;;;;;;;1.92;0.80;;;13.90;99.90;;;;;;4200288;28;20178;-87
2023/10/06 02:47:04;;;;;;;3.95;1.13;;;13.90;99.90;;;;;;4221135;28;20249;-87
2023/10/06 02:49:08;;;;;;;1.98;0.80;;;13.90;99.90;;;;;;4205924;28;20249;-88
2023/10/06 02:51:18;;;;;;;2.15;0.80;;;13.90;99.90;;;;;;4225669;28;20169;-87
2023/10/06 02:53:20;;;;;;;2.45;1.25;;;13.90;99.90;;;;;;4222943;28;20264;-87
2023/10/06 02:55:31;;;;;;;2.15;1.00;;;14.00;99.90;;;;;;4226233;28;20189;-95
2023/10/06 02:57:41;;;;;;;4.90;0.82;;;14.00;99.90;;;;;;4210761;28;20211;-94
2023/10/06 02:59:43;;;;;;;2.50;1.00;;;13.90;99.90;;;;;;4207373;28;20347;-93
2023/10/06 03:01:51;;;;;;;5.70;1.20;;;13.90;99.90;;;;;;4222587;28;20162;-88
2023/10/06 03:04:05;;;;;;;3.90;1.73;;;13.80;99.90;;;;;;4226002;28;20220;-87
2023/10/06 03:06:07;;;;;;;3.83;1.10;;;13.80;99.90;;;;;;4210894;28;20191;-87
2023/10/06 03:08:11;;;;;;;6.10;1.85;;;13.80;99.90;;;;;;4210109;28;20162;-87
2023/10/06 03:10:17;;;;;;;3.95;0.90;;;13.80;99.90;;;;;;4211496;28;20171;-92
2023/10/06 03:12:31;;;;;;;1.40;0.98;;;13.80;99.90;;;;;;4208553;28;20223;-90
2023/10/06 03:14:38;;;;;;;2.08;0.95;;;13.90;99.90;;;;;;4209204;28;20192;-87
2023/10/06 03:16:43;;;;;;;2.08;1.05;;;14.00;99.90;;;;;;4207804;28;20206;-87
2023/10/06 03:19:03;;;;;;;1.83;0.80;;;13.90;99.90;;;;;;4223398;28;20207;-90
2023/10/06 03:21:23;;;;;;;1.40;0.70;;;14.00;99.90;;;;;;4226327;28;20577;-95
2023/10/06 03:25:28;;;;;;;3.28;1.20;;;13.90;99.90;;;;;;4228943;28;20170;-87
2023/10/06 03:27:28;;;;;;;3.72;1.00;;;13.90;99.90;;;;;;4209027;28;20276;-92
2023/10/06 03:30:07;;;;;;;8.73;0.90;;;13.90;99.90;;;;;;4244850;28;20241;-94
2023/10/06 03:32:39;;;;;;;4.57;0.90;;;13.80;99.90;;;;;;4230617;28;20178;-87
2023/10/06 03:34:43;;;;;;;9.07;1.02;;;13.70;99.90;;;;;;4225070;28;20159;-87
2023/10/06 03:37:04;;;;;;;1.75;1.02;;;13.60;99.90;;;;;;4225055;28;20210;-87
2023/10/06 03:39:10;;;;;;;2.33;0.75;;;13.70;99.90;;;;;;4227516;28;20261;-87
2023/10/06 03:41:18;;;;;;;2.83;1.25;;;13.60;99.90;;;;;;4207854;28;20151;-87
2023/10/06 03:43:55;;;;;;;5.13;1.00;;;13.60;99.90;;;;;;4222634;28;20185;-88
2023/10/06 03:45:57;;;;;;;3.97;1.00;;;13.60;99.90;;;;;;4226654;28;20181;-87
2023/10/06 03:48:14;;;;;;;3.45;1.23;;;13.60;99.90;;;;;;4210562;28;20246;-87
2023/10/06 03:50:19;;;;;;;5.22;1.30;;;13.60;99.90;;;;;;4223759;28;20154;-87
2023/10/06 03:52:37;;;;;;;3.25;1.08;;;13.50;99.90;;;;;;4247914;28;20157;-87
2023/10/06 03:54:39;;;;;;;5.93;1.52;;;13.50;99.90;;;;;;4225016;27;20671;-87
2023/10/06 03:56:40;;;;;;;8.10;1.40;;;13.50;99.90;;;;;;4224501;27;20210;-90
2023/10/06 03:58:41;;;;;;;6.47;1.13;;;13.50;99.90;;;;;;4228272;27;20174;-87
2023/10/06 04:01:08;;;;;;;5.18;1.33;;;13.50;99.90;;;;;;4242920;27;20188;-92
2023/10/06 04:03:13;;;;;;;4.90;1.23;;;13.40;99.90;;;;;;4222727;27;20181;-86
2023/10/06 04:05:15;;;;;;;2.65;1.13;;;13.30;99.90;;;;;;4208397;28;20253;-88
2023/10/06 04:07:16;;;;;;;2.00;0.95;;;13.30;99.90;;;;;;4224801;27;20631;-91
2023/10/06 04:09:27;;;;;;;1.25;0.70;;;13.30;99.90;;;;;;4241298;28;20161;-87
2023/10/06 04:11:37;;;;;;;5.28;0.80;;;13.30;99.90;;;;;;4223259;28;20206;-94
2023/10/06 04:13:38;;;;;;;3.17;1.30;;;13.30;99.90;;;;;;4241826;27;20207;-87
2023/10/06 04:15:44;;;;;;;7.78;1.27;;;13.30;99.90;;;;;;4205941;28;20650;-86
2023/10/06 04:18:00;;;;;;;5.15;0.90;;;13.30;99.90;;;;;;4241549;27;20161;-92
2023/10/06 04:20:05;;;;;;;1.35;0.90;;;13.30;99.90;;;;;;4223571;27;20174;-87
2023/10/06 04:22:14;;;;;;;3.42;1.27;;;13.40;99.90;;;;;;4224975;27;20264;-87
2023/10/06 04:24:15;;;;;;;1.67;0.85;;;13.30;99.90;;;;;;4205602;28;20565;-88
2023/10/06 04:26:15;;;;;;;4.90;1.20;;;13.20;99.90;;;;;;4225168;28;20194;-86
2023/10/06 04:28:17;;;;;;;1.85;0.77;;;13.20;99.90;;;;;;4204158;28;20577;-86
2023/10/06 04:30:18;;;;;;;1.67;1.00;;;13.20;99.90;;;;;;4207629;28;20209;-87
2023/10/06 04:32:19;;;;;;;2.85;0.98;;;13.20;99.90;;;;;;4225505;28;20166;-86
2023/10/06 04:34:22;;;;;;;1.63;1.05;;;13.20;99.90;;;;;;4224797;27;20541;-87
2023/10/06 04:36:24;;;;;;;4.28;1.10;;;13.20;99.90;;;;;;4208267;28;20249;-87
2023/10/06 04:38:29;;;;;;;1.92;0.75;;;13.20;99.90;;;;;;4225700;28;20223;-88
2023/10/06 04:40:29;;;;;;;8.50;1.88;;;13.10;99.90;;;;;;4206820;28;20175;-87
2023/10/06 04:42:31;;;;;;;2.08;0.80;;;13.10;99.90;;;;;;4207258;28;20269;-86
2023/10/06 04:44:34;;;;;;;2.20;0.82;;;13.00;99.90;;;;;;4209956;28;20663;-87
2023/10/06 04:46:35;;;;;;;3.28;1.33;;;13.00;99.90;;;;;;4225190;27;20228;-86
2023/10/06 04:48:36;;;;;;;3.90;1.10;;;13.10;99.90;;;;;;4208406;28;20175;-86
2023/10/06 04:50:37;;;;;;;6.97;1.90;;;13.20;99.90;;;;;;4226213;27;20180;-87
2023/10/06 04:52:42;;;;;;;5.72;1.17;;;13.20;99.90;;;;;;4225333;28;20181;-86
2023/10/06 04:54:43;;;;;;;4.50;1.10;;;13.10;99.90;;;;;;4208177;28;20178;-92
2023/10/06 04:56:44;;;;;;;2.30;0.88;;;13.10;99.90;;;;;;4224672;27;20593;-88
2023/10/06 04:58:44;;;;;;;7.57;1.10;;;13.00;99.90;;;;;;4210380;28;20198;-87
2023/10/06 05:00:53;;;;;;;1.65;0.52;;;12.90;99.90;;;;;;4210349;28;20554;-89
2023/10/06 05:03:12;;;;;;;3.10;0.95;;;12.90;99.90;;;;;;4222643;27;20268;-86
2023/10/06 05:05:19;;;;;;;5.72;1.25;;;12.90;99.90;;;;;;4210777;28;20195;-87
2023/10/06 05:07:27;;;;;;;1.75;0.57;;;12.80;99.90;;;;;;4225507;28;20182;-93
2023/10/06 05:09:28;;;;;;;1.48;0.60;;;12.80;99.90;;;;;;4207341;28;20175;-85
2023/10/06 05:11:32;;;;;;;9.90;1.00;;;12.90;99.90;;;;;;4224676;28;20210;-87
2023/10/06 05:13:34;;;;;;;1.08;0.77;;;12.90;99.90;;;;;;4223108;28;20182;-86
2023/10/06 05:15:35;;;;;;;4.40;1.10;;;12.90;99.90;;;;;;4207793;28;20186;-86
2023/10/06 05:17:36;;;;;;;4.03;1.10;;;12.90;99.90;;;;;;4207803;28;20167;-86
2023/10/06 05:19:37;;;;;;;1.92;1.00;;;12.90;99.90;;;;;;4206384;28;20163;-86
2023/10/06 05:21:39;;;;;;;2.53;0.90;;;13.00;99.90;;;;;;4225079;28;20200;-87
2023/10/06 05:23:41;;;;;;;3.72;1.30;;;13.00;99.90;;;;;;4205989;28;20665;-86
2023/10/06 05:25:48;;;;;;;2.10;0.90;;;13.00;99.90;;;;;;4241859;28;20248;-86
2023/10/06 05:27:50;;;;;;;2.92;1.25;;;13.10;99.90;;;;;;4206499;28;20171;-87
2023/10/06 05:29:51;;;;;;;1.83;1.05;;;13.00;99.90;;;;;;4224389;28;20253;-87
2023/10/06 05:31:52;;;;;;;4.22;1.00;;;13.10;99.90;;;;;;4204052;28;20170;-87
2023/10/06 05:33:53;;;;;;;3.63;1.02;;;13.20;99.90;;;;;;4205271;28;20539;-94
2023/10/06 05:35:53;;;;;;;4.30;1.05;;;13.10;99.90;;;;;;4207368;28;20218;-87
2023/10/06 05:37:54;;;;;;;2.42;1.10;;;13.20;99.90;;;;;;4207109;28;20183;-88
2023/10/06 05:39:55;;;;;;;3.55;1.30;;;13.20;99.90;;;;;;4203107;28;20167;-96
2023/10/06 05:41:56;;;;;;;3.83;1.40;;;13.10;99.90;;;;;;4203594;28;20183;-93
2023/10/06 05:43:58;;;;;;;2.80;1.10;;;13.10;99.90;;;;;;4205174;28;20638;-87
2023/10/06 05:45:58;;;;;;;4.03;0.93;;;13.20;99.90;;;;;;4205996;28;20210;-87
2023/10/06 05:48:06;;;;;;;5.90;1.77;;;13.10;99.90;;;;;;4219334;28;20196;-94
2023/10/06 05:50:08;;;;;;;2.40;1.27;;;13.00;99.90;;;;;;4202292;28;20188;-95
2023/10/06 05:52:10;;;;;;;3.80;1.10;;;13.00;99.90;;;;;;4205244;28;20167;-93
2023/10/06 05:54:18;;;;;;;13.45;1.33;;;12.90;99.90;;;;;;4223518;27;20177;-93
2023/10/06 05:56:26;;;;;;;2.55;0.80;;;12.90;99.90;;;;;;4239422;27;20291;-86
2023/10/06 05:58:44;;;;;;;3.72;1.30;;;12.90;99.90;;;;;;4239697;28;20177;-86
2023/10/06 06:00:55;;;;;;;2.80;1.00;;;12.70;99.90;;;;;;4208211;28;20228;-87
2023/10/06 06:02:58;;;;;;;3.42;1.10;;;12.90;99.90;;;;;;4203888;28;20666;-87
2023/10/06 06:04:59;;;;;;;8.55;1.20;;;12.80;99.90;;;;;;4205619;28;20182;-87
2023/10/06 06:07:02;;;;;;;2.25;1.13;;;12.90;99.90;;;;;;4221287;28;20688;-86
2023/10/06 06:09:14;;;;;;;4.35;1.92;;;13.00;99.90;;;;;;4222517;28;20173;-95
2023/10/06 06:11:15;;;;;;;3.80;1.30;;;13.00;99.90;;;;;;4221416;28;20249;-86
2023/10/06 06:13:17;;;;;;;1.77;0.88;;;13.10;99.90;;;;;;4206511;28;20146;-94
2023/10/06 06:15:18;;;;;;;7.82;1.77;;;13.00;99.90;;;;;;4219949;28;20647;-90
2023/10/06 06:17:20;;;;;;;8.05;1.38;;;12.90;99.90;;;;;;4203072;28;20256;-96
2023/10/06 06:19:21;;;;;;;6.95;2.25;;;12.90;99.90;;;;;;4203131;28;20179;-87
2023/10/06 06:21:24;;;;;;;4.47;1.13;;;12.90;99.90;;;;;;4222691;27;20197;-86
2023/10/06 06:23:25;;;;;;;2.85;1.50;;;12.90;99.90;;;;;;4204005;28;20171;-84
2023/10/06 06:25:26;;;;;;;2.42;1.10;;;13.00;99.90;;;;;;4203138;28;20193;-94
2023/10/06 06:27:27;;;;;;;7.50;1.42;;;13.10;99.90;;;;;;4221004;28;20204;-86
2023/10/06 06:29:29;;;;;;;3.58;1.08;;;13.20;99.90;;;;;;4203712;28;20195;-86
2023/10/06 06:31:33;;;;;;;4.13;1.67;;;13.30;99.90;;;;;;4206153;28;20264;-86
2023/10/06 06:33:35;;;;;;;6.72;1.63;;;13.30;99.90;;;;;;4206897;28;20162;-88
2023/10/06 06:35:36;;;;;;;3.13;1.55;;;13.40;99.90;;;;;;4222061;27;20222;-86
2023/10/06 06:37:37;;;;;;;3.78;1.58;;;13.60;99.90;;;;;;4204327;28;20175;-85
2023/10/06 06:39:42;;;;;;;5.57;1.20;;;13.60;99.90;;;;;;4205210;28;20178;-94
2023/10/06 06:41:43;;;;;;;3.90;1.38;;;13.80;99.90;;;;;;4202939;28;20233;-95
2023/10/06 06:43:45;;;;;;;1.35;1.00;;;13.80;99.90;;;;;;4223087;28;20170;-87
2023/10/06 06:45:46;;;;;;;3.20;1.20;;;13.90;99.90;;;;;;4204279;28;20233;-86
2023/10/06 06:48:03;;;;;;;3.72;1.83;;;14.10;99.90;;;;;;4222204;28;20154;-95
2023/10/06 06:50:06;;;;;;;3.15;1.05;;;14.60;99.90;;;;;;4218084;28;20177;-87
2023/10/06 06:52:07;;;;;;;6.32;1.50;;;15.30;99.90;;;;;;4206774;28;20185;-96
2023/10/06 06:54:10;;;;;;;5.32;2.03;;;15.60;99.90;;;;;;4220924;27;20264;-92
2023/10/06 06:56:11;;;;;;;2.00;1.02;;;15.90;99.90;;;;;;4207106;28;20229;-86
2023/10/06 06:58:12;;;;;;;3.00;1.27;;;16.20;99.90;;;;;;4203437;28;20250;-87
2023/10/06 07:00:15;;;;;;;4.85;1.05;;;16.40;99.90;;;;;;4208807;28;20155;-87
2023/10/06 07:02:16;;;;;;;2.40;1.15;;;16.50;99.90;;;;;;4204992;28;20175;-89
2023/10/06 07:04:17;;;;;;;5.22;1.45;;;16.50;99.90;;;;;;4221728;28;20177;-87
2023/10/06 07:06:18;;;;;;;10.02;1.65;;;16.20;99.90;;;;;;4207036;28;20191;-86
2023/10/06 07:08:19;;;;;;;1.80;0.60;;;16.30;99.90;;;;;;4220991;28;20566;-87
2023/10/06 07:10:22;;;;;;;8.00;1.75;;;16.20;99.90;;;;;;4202612;28;20170;-86
2023/10/06 07:12:23;;;;;;;4.75;1.58;;;16.30;99.90;;;;;;4205170;28;20213;-95
2023/10/06 07:14:27;;;;;;;8.13;2.00;;;16.50;99.90;;;;;;4222208;27;20170;-86
2023/10/06 07:16:28;;;;;;;2.25;1.00;;;16.30;99.90;;;;;;4224702;28;20245;-86
2023/10/06 07:18:28;;;;;;;4.43;1.25;;;16.20;99.90;;;;;;4222399;28;20228;-87
2023/10/06 07:20:30;;;;;;;4.10;1.38;;;16.10;99.90;;;;;;4240282;28;20199;-86
2023/10/06 07:22:31;;;;;;;2.00;0.98;;;16.10;99.90;;;;;;4219684;27;20182;-87
2023/10/06 07:24:32;;;;;;;4.30;1.15;;;15.90;99.90;;;;;;4218181;28;20166;-90
2023/10/06 07:26:32;;;;;;;10.07;1.52;;;15.90;99.90;;;;;;4220371;28;20167;-94
2023/10/06 07:28:34;;;;;;;5.95;1.65;;;16.20;99.90;;;;;;4219468;28;20661;-95
2023/10/06 07:30:34;;;;;;;4.93;1.27;;;16.00;99.90;;;;;;4222195;28;20186;-86
2023/10/06 07:32:40;;;;;;;3.70;1.17;;;16.00;99.90;;;;;;4221527;28;20182;-87
2023/10/06 07:34:44;;;;;;;9.50;1.70;;;15.70;99.90;;;;;;4220203;28;20164;-88
2023/10/06 07:36:46;;;;;;;6.50;2.13;;;15.90;99.90;;;;;;4207702;28;20365;-87
2023/10/06 07:38:48;;;;;;;3.60;1.15;;;16.10;99.90;;;;;;4222697;28;20159;-86
2023/10/06 07:40:48;;;;;;;9.10;1.75;;;16.10;99.90;;;;;;4227059;27;20197;-87
2023/10/06 07:42:51;;;;;;;4.75;1.30;;;15.90;99.90;;;;;;4223222;28;20170;-95
2023/10/06 07:44:52;;;;;;;2.10;0.90;;;15.70;99.90;;;;;;4242341;28;20260;-87
2023/10/06 07:46:53;;;;;;;11.18;1.42;;;15.60;99.90;;;;;;4208986;28;20222;-87
2023/10/06 07:48:55;;;;;;;3.15;1.63;;;15.70;99.90;;;;;;4226557;28;20159;-91
2023/10/06 07:51:09;;;;;;;6.22;1.25;;;15.80;99.90;;;;;;4224091;27;20217;-89
2023/10/06 07:53:10;;;;;;;1.38;0.80;;;15.70;99.90;;;;;;4208375;28;20189;-87
2023/10/06 07:55:12;;;;;;;3.97;1.52;;;16.00;99.90;;;;;;4208655;28;20185;-88
2023/10/06 07:57:12;;;;;;;3.72;1.45;;;16.30;99.90;;;;;;4242305;28;20230;-87
2023/10/06 07:59:14;;;;;;;4.88;1.35;;;16.40;99.90;;;;;;4208959;28;20150;-86
2023/10/06 08:01:27;;;;;;;2.80;1.20;;;16.40;99.90;;;;;;4207106;28;20202;-86
2023/10/06 08:03:28;;;;;;;2.55;1.10;;;16.80;99.90;;;;;;4222193;28;20173;-87
2023/10/06 08:05:30;;;;;;;3.47;1.27;;;17.50;99.90;;;;;;4224225;28;20185;-87
2023/10/06 08:07:30;;;;;;;6.28;1.67;;;18.00;99.90;;;;;;4221897;27;20598;-88
2023/10/06 08:09:38;;;;;;;2.80;1.15;;;18.00;99.90;;;;;;4208394;28;20197;-87
2023/10/06 08:11:39;;;;;;;5.05;1.60;;;18.10;99.90;;;;;;4225822;27;20158;-86
2023/10/06 08:13:42;;;;;;;4.60;1.40;;;17.70;99.90;;;;;;4222275;28;20182;-87
2023/10/06 08:15:44;;;;;;;4.13;1.85;;;17.60;99.90;;;;;;4222563;28;20209;-87
2023/10/06 08:17:47;;;;;;;7.88;1.58;;;17.60;99.90;;;;;;4222783;27;20221;-87
2023/10/06 08:19:47;;;;;;;2.75;1.38;;;18.00;99.90;;;;;;4222180;28;20241;-86
2023/10/06 08:21:48;;;;;;;3.47;1.52;;;18.20;99.90;;;;;;4204656;28;20179;-88
2023/10/06 08:23:50;;;;;;;2.55;0.90;;;18.50;99.90;;;;;;4219558;28;20249;-95
2023/10/06 08:25:56;;;;;;;4.78;1.33;;;18.50;99.90;;;;;;4218818;28;20197;-94
2023/10/06 08:27:56;;;;;;;10.90;2.08;;;18.60;99.90;;;;;;4216882;28;20166;-84
2023/10/06 08:29:57;;;;;;;5.57;2.03;;;18.90;99.90;;;;;;4218959;28;20213;-84
2023/10/06 08:31:58;;;;;;;4.05;1.27;;;19.30;99.90;;;;;;4237116;28;20165;-85
2023/10/06 08:34:01;;;;;;;1.88;0.95;;;19.40;99.90;;;;;;4222462;28;20174;-95
2023/10/06 08:36:02;;;;;;;2.58;1.00;;;19.60;99.90;;;;;;4205458;28;20202;-86
2023/10/06 08:38:03;;;;;;;3.72;1.10;;;19.50;99.90;;;;;;4222976;28;20217;-87
2023/10/06 08:40:07;;;;;;;3.03;0.90;;;19.50;99.90;;;;;;4207847;28;20226;-87
2023/10/06 08:42:12;;;;;;;3.90;1.02;;;19.20;99.90;;;;;;4226686;28;20613;-87
2023/10/06 08:44:15;;;;;;;3.65;0.90;;;19.40;99.90;;;;;;4206129;28;20601;-86
2023/10/06 08:46:16;;;;;;;3.20;1.50;;;19.50;99.90;;;;;;4221717;28;20295;-87
2023/10/06 08:48:35;;;;;;;5.45;1.13;;;19.10;99.90;;;;;;4224597;27;20158;-87
2023/10/06 08:50:37;;;;;;;3.13;1.27;;;19.20;99.90;;;;;;4220876;28;20173;-87
2023/10/06 08:52:41;;;;;;;4.00;1.70;;;18.90;99.90;;;;;;4220650;28;20150;-87
2023/10/06 08:54:43;;;;;;;2.95;1.27;;;19.00;99.90;;;;;;4217662;22;20206;-88
2023/10/06 08:56:46;;;;;;;2.55;1.00;;;18.90;99.90;;;;;;4223422;28;20214;-87
2023/10/06 08:58:47;;;;;;;2.20;0.80;;;18.80;99.90;;;;;;4207592;28;20559;-86
2023/10/06 09:00:48;;;;;;;3.22;1.40;;;19.00;99.90;;;;;;4208743;28;20171;-87
2023/10/06 09:02:51;;;;;;;5.45;1.40;;;18.90;99.90;;;;;;4222515;28;20171;-87
2023/10/06 09:04:54;;;;;;;4.65;1.33;;;18.90;99.90;;;;;;4223084;28;20154;-88
2023/10/06 09:07:17;;;;;;;3.45;1.30;;;19.30;99.90;;;;;;4225241;28;20638;-94
2023/10/06 09:09:26;;;;;;;7.93;1.15;;;19.50;99.90;;;;;;4206905;28;20171;-88
2023/10/06 09:11:37;;;;;;;6.50;1.60;;;19.60;99.90;;;;;;4207483;28;20257;-87
2023/10/06 09:13:38;;;;;;;4.97;1.23;;;19.80;99.90;;;;;;4206157;28;20317;-87
2023/10/06 09:15:40;;;;;;;4.47;0.90;;;20.00;99.90;;;;;;4211926;28;20174;-87
2023/10/06 09:17:41;;;;;;;6.05;1.40;;;20.00;99.90;;;;;;4245501;27;20199;-88
2023/10/06 09:19:47;;;;;;;8.52;1.20;;;20.10;99.90;;;;;;4209269;28;20155;-95
2023/10/06 09:22:08;;;;;;;4.07;1.05;;;20.10;99.90;;;;;;4226147;27;20172;-87
2023/10/06 09:24:19;;;;;;;6.20;1.35;;;20.10;99.90;;;;;;4206212;28;20187;-86
2023/10/06 09:26:29;;;;;;;3.63;1.20;;;19.80;99.90;;;;;;4224863;28;20204;-87
2023/10/06 09:28:31;;;;;;;2.83;1.17;;;19.60;99.90;;;;;;4221366;28;20173;-87
2023/10/06 09:30:50;;;;;;;5.35;1.58;;;19.90;99.90;;;;;;4221940;28;20596;-87
2023/10/06 09:33:11;;;;;;;2.63;1.15;;;19.80;99.90;;;;;;4222515;27;20170;-86
2023/10/06 09:35:27;;;;;;;5.72;1.13;;;19.50;99.90;;;;;;4223143;28;20218;-87
2023/10/06 09:37:29;;;;;;;3.58;1.42;;;19.10;99.90;;;;;;4221789;28;20320;-87
2023/10/06 09:39:34;;;;;;;3.40;1.50;;;18.90;99.90;;;;;;4204253;28;20167;-95
2023/10/06 09:41:36;;;;;;;8.50;1.27;;;19.10;99.90;;;;;;4221806;28;20182;-87
2023/10/06 09:43:38;;;;;;;1.67;0.85;;;19.10;99.90;;;;;;4202136;28;20267;-87
2023/10/06 09:45:41;;;;;;;4.32;1.27;;;19.40;99.90;;;;;;4220263;28;20592;-87
2023/10/06 09:48:05;;;;;;;4.63;1.33;;;19.50;99.90;;;;;;4222543;28;20200;-86
2023/10/06 09:50:07;;;;;;;5.13;1.38;;;19.50;99.90;;;;;;4214974;28;20185;-87
2023/10/06 09:52:08;;;;;;;4.68;1.27;;;19.50;99.90;;;;;;4223099;28;20175;-87
2023/10/06 09:54:11;;;;;;;5.38;0.80;;;19.70;99.90;;;;;;4209515;28;20266;-86
2023/10/06 09:56:13;;;;;;;9.95;1.95;;;19.70;99.90;;;;;;4242894;27;20214;-88
2023/10/06 09:58:35;;;;;;;4.78;1.15;;;20.00;99.90;;;;;;4241993;28;20207;-87
2023/10/06 10:00:39;;;;;;;5.13;1.13;;;20.20;99.90;;;;;;4225076;27;20174;-86
2023/10/06 10:02:40;;;;;;;5.82;1.27;;;19.90;99.90;;;;;;4207660;28;20155;-85
2023/10/06 10:04:45;;;;;;;3.83;0.95;;;19.80;99.90;;;;;;4219463;27;20194;-87
2023/10/06 10:06:47;;;;;;;6.63;1.60;;;19.80;99.90;;;;;;4209017;28;20278;-91
2023/10/06 10:08:53;;;;;;;3.13;1.20;;;19.90;99.90;;;;;;4221935;28;20175;-89
2023/10/06 10:10:55;;;;;;;4.00;1.08;;;19.90;99.90;;;;;;4222639;27;20265;-87
2023/10/06 10:13:20;;;;;;;4.78;1.48;;;20.00;99.90;;;;;;4238353;27;20173;-87
2023/10/06 10:16:02;;;;;;;3.63;1.40;;;20.30;99.90;;;;;;4220175;28;20244;-86
2023/10/06 10:18:17;;;;;;;4.95;1.42;;;20.20;99.90;;;;;;4198791;28;20264;-89
2023/10/06 10:20:23;;;;;;;2.13;1.08;;;20.00;99.90;;;;;;4222590;28;20169;-86
2023/10/06 10:22:24;;;;;;;7.15;1.20;;;19.90;99.90;;;;;;4204559;28;20175;-92
2023/10/06 10:24:26;;;;;;;7.72;1.25;;;19.80;99.90;;;;;;4204869;28;20715;-86
2023/10/06 10:26:27;;;;;;;4.75;1.45;;;20.00;99.90;;;;;;4206753;28;20194;-87
2023/10/06 10:28:28;;;;;;;2.58;1.10;;;20.20;99.90;;;;;;4223564;27;20174;-86
2023/10/06 10:31:13;;;;;;;6.72;1.13;;;20.20;99.90;;;;;;4204409;28;20180;-86
2023/10/06 10:33:21;;;;;;;6.70;1.35;;;20.20;99.90;;;;;;4138117;28;20192;-86
2023/10/06 10:35:22;;;;;;;2.97;1.08;;;20.20;99.90;;;;;;4136041;28;20193;-87
2023/10/06 10:37:26;;;;;;;3.33;0.70;;;20.20;99.90;;;;;;4152029;28;20213;-86
2023/10/06 10:39:39;;;;;;;5.93;1.17;;;20.40;99.90;;;;;;4198838;28;20254;-88
2023/10/06 10:41:40;;;;;;;2.72;0.95;;;20.50;99.90;;;;;;4198805;28;20705;-86
2023/10/06 10:43:45;;;;;;;5.15;1.23;;;20.70;99.90;;;;;;4216770;28;20172;-86
2023/10/06 10:45:47;;;;;;;3.72;1.25;;;20.90;99.90;;;;;;4198757;28;20198;-85
2023/10/06 10:47:49;;;;;;;9.05;1.55;;;20.80;99.90;;;;;;4215875;28;20644;-85
2023/10/06 10:49:51;;;;;;;10.13;1.15;;;20.70;99.90;;;;;;4197916;28;20183;-86
2023/10/06 10:52:00;;;;;;;5.85;0.95;;;20.50;99.90;;;;;;4217744;28;20170;-85